Time;durP1;ratioP1;P1;durP2;ratioP2;P2;SDS_P1;SDS_P2;PMS_P1;PMS_P2;Temp;Humidity;BMP_temperature;BMP_pressure;BME280_temperature;BME280_humidity;BME280_pressure;Samples;Min_cycle;Max_cycle;Signal;HPM_P1;HPM_P2
2023/06/10 00:00:12;;;;;;;8.15;5.05;;;18.50;99.90;;;17.29;100.00;97292.38;5040310;28;20502;-70
2023/06/10 00:02:39;;;;;;;7.30;5.38;;;18.40;99.90;;;17.39;100.00;97292.53;5042666;28;20051;-71
2023/06/10 00:05:08;;;;;;;7.70;5.65;;;18.40;99.90;;;17.20;100.00;97293.06;5040169;28;20403;-70
2023/06/10 00:07:38;;;;;;;7.00;5.07;;;18.40;99.90;;;17.22;100.00;97295.56;5034915;28;20108;-71
2023/06/10 00:10:06;;;;;;;8.68;5.40;;;18.30;99.90;;;17.13;100.00;97291.84;5039735;28;20042;-72
2023/06/10 00:12:36;;;;;;;8.45;4.95;;;18.30;99.90;;;17.25;100.00;97290.09;5039524;28;20057;-71
2023/06/10 00:15:06;;;;;;;8.40;5.57;;;18.20;99.90;;;17.14;100.00;97286.47;5038566;28;20427;-71
2023/06/10 00:17:33;;;;;;;7.82;5.30;;;18.20;99.90;;;17.14;100.00;97291.72;5065658;28;20164;-71
2023/06/10 00:20:04;;;;;;;9.88;5.72;;;18.30;99.90;;;17.27;100.00;97293.44;5037077;28;20107;-70
2023/06/10 00:22:32;;;;;;;8.43;5.60;;;18.20;99.90;;;17.11;100.00;97285.88;5034954;28;20091;-70
2023/06/10 00:24:59;;;;;;;7.72;4.88;;;18.20;99.90;;;16.99;100.00;97292.88;5035993;28;20812;-70
2023/06/10 00:27:31;;;;;;;6.78;5.45;;;18.20;99.90;;;16.83;100.00;97293.16;5034935;28;20045;-71
2023/06/10 00:29:58;;;;;;;7.60;5.30;;;18.10;99.90;;;16.91;100.00;97293.41;5068395;28;20046;-70
2023/06/10 00:32:25;;;;;;;7.35;5.10;;;18.00;99.90;;;16.58;100.00;97286.19;5035025;28;20072;-70
2023/06/10 00:34:52;;;;;;;7.55;5.07;;;18.00;99.90;;;16.45;100.00;97295.84;5035436;28;20121;-70
2023/06/10 00:37:20;;;;;;;8.20;5.65;;;;;;;16.43;100.00;97287.25;5039186;28;20065;-71
2023/06/10 00:39:47;;;;;;;7.55;5.50;;;17.70;99.90;;;16.29;100.00;97283.84;5035094;28;20056;-71
2023/06/10 00:42:15;;;;;;;6.43;5.43;;;17.60;99.90;;;16.26;100.00;97281.44;5035990;28;20164;-70
2023/06/10 00:44:42;;;;;;;6.85;5.30;;;17.60;99.90;;;16.02;100.00;97288.38;5035549;28;20434;-71
2023/06/10 00:47:09;;;;;;;6.28;5.20;;;17.50;99.90;;;15.95;100.00;97293.19;5038949;28;20091;-71
2023/06/10 00:49:36;;;;;;;9.25;5.70;;;17.30;99.90;;;15.90;100.00;97287.44;5034794;28;20115;-71
2023/06/10 00:52:06;;;;;;;6.82;5.78;;;17.20;99.90;;;15.80;100.00;97289.84;5040180;28;20065;-71
2023/06/10 00:54:33;;;;;;;8.43;5.30;;;17.10;99.90;;;15.82;100.00;97287.13;5037466;28;20487;-72
2023/06/10 00:57:01;;;;;;;7.07;5.80;;;17.00;99.90;;;15.75;100.00;97289.31;5034948;28;20081;-70
2023/06/10 00:59:30;;;;;;;7.47;5.50;;;17.00;99.90;;;15.54;100.00;97298.59;5034127;28;20053;-71
2023/06/10 01:01:57;;;;;;;6.50;5.47;;;16.90;99.90;;;15.55;100.00;97302.88;5044961;28;20513;-70
2023/06/10 01:04:25;;;;;;;8.50;6.07;;;16.80;99.90;;;15.50;100.00;97304.97;5050646;28;20776;-71
2023/06/10 01:07:23;;;;;;;7.07;5.88;;;16.70;99.90;;;15.42;100.00;97308.94;5042082;28;20609;-70
2023/06/10 01:10:01;;;;;;;8.40;6.18;;;16.70;99.90;;;15.56;100.00;97308.03;5053206;28;20053;-72
2023/06/10 01:12:48;;;;;;;6.90;5.57;;;16.70;99.90;;;15.31;100.00;97306.19;5022028;28;20489;-71
2023/06/10 01:15:17;;;;;;;8.40;5.75;;;16.70;99.90;;;15.38;100.00;97309.25;5026913;28;20056;-71
2023/06/10 01:18:08;;;;;;;11.48;6.10;;;16.60;99.90;;;15.35;100.00;97305.06;5037311;28;20065;-71
2023/06/10 01:20:40;;;;;;;6.20;5.60;;;16.60;99.90;;;15.23;100.00;97316.31;5051635;28;20057;-71
2023/06/10 01:23:08;;;;;;;9.13;6.13;;;16.50;99.90;;;15.19;100.00;97313.06;5039599;28;20049;-72
2023/06/10 01:26:12;;;;;;;6.35;5.43;;;16.40;99.90;;;15.14;100.00;97320.34;5043512;28;20157;-70
2023/06/10 01:28:46;;;;;;;7.57;5.72;;;16.40;99.90;;;15.00;100.00;97316.03;5008898;28;20064;-73
2023/06/10 01:31:33;;;;;;;6.97;5.68;;;16.30;99.90;;;15.13;100.00;97321.31;5035317;28;20501;-73
2023/06/10 01:34:03;;;;;;;8.18;5.50;;;16.40;99.90;;;15.12;100.00;97318.78;5035114;28;20053;-72
2023/06/10 01:36:31;;;;;;;7.75;6.03;;;16.30;99.90;;;14.99;100.00;97327.44;5031210;28;20068;-73
2023/06/10 01:39:00;;;;;;;7.90;6.53;;;16.30;99.90;;;14.90;100.00;97335.03;5033660;28;20049;-73
2023/06/10 01:41:29;;;;;;;8.10;5.97;;;16.20;99.90;;;14.76;100.00;97331.53;5051074;28;20048;-72
2023/06/10 01:43:56;;;;;;;10.52;5.75;;;16.10;99.90;;;14.71;100.00;97335.34;5043455;28;20053;-72
2023/06/10 01:46:23;;;;;;;7.53;6.25;;;16.10;99.90;;;14.66;100.00;97340.03;5048812;28;20042;-72
2023/06/10 01:48:50;;;;;;;7.72;6.20;;;16.00;99.90;;;14.57;100.00;97339.69;5040979;28;20132;-72
2023/06/10 01:51:18;;;;;;;6.90;5.45;;;15.90;99.90;;;14.40;100.00;97342.47;5040716;28;20049;-72
2023/06/10 01:53:45;;;;;;;7.82;5.88;;;15.90;99.90;;;14.35;100.00;97350.59;5050463;28;20049;-72
2023/06/10 01:56:17;;;;;;;8.52;6.30;;;15.80;99.90;;;14.47;100.00;97348.16;5025287;28;20123;-72
2023/06/10 01:58:48;;;;;;;;;;;15.80;99.90;;;14.36;100.00;97346.19;5035721;28;20049;-72
2023/06/10 02:01:15;;;;;;;7.20;5.55;;;15.70;99.90;;;14.46;100.00;97343.84;5064063;28;20327;-72
2023/06/10 02:03:42;;;;;;;7.65;5.82;;;15.70;99.90;;;14.69;100.00;97342.44;5066733;28;20136;-72
2023/06/10 02:06:09;;;;;;;8.98;6.70;;;15.70;99.90;;;14.77;100.00;97345.41;5034909;28;20513;-71
2023/06/10 02:08:36;;;;;;;8.45;5.85;;;15.80;99.90;;;14.82;100.00;97338.97;5035719;28;20088;-72
2023/06/10 02:11:07;;;;;;;8.90;6.10;;;15.80;99.90;;;14.73;100.00;97336.09;5033407;28;20055;-72
2023/06/10 02:13:34;;;;;;;8.90;6.28;;;15.90;99.90;;;14.62;100.00;97345.47;5034718;28;20056;-72
2023/06/10 02:16:02;;;;;;;7.90;6.53;;;15.80;99.90;;;14.55;100.00;97346.78;5032633;28;20036;-72
2023/06/10 02:18:29;;;;;;;7.75;6.15;;;15.70;99.90;;;14.55;100.00;97349.38;5035624;28;20129;-72
2023/06/10 02:20:56;;;;;;;6.82;6.13;;;15.70;99.90;;;14.66;100.00;97356.53;5033791;28;20060;-72
2023/06/10 02:23:23;;;;;;;8.50;6.40;;;15.80;99.90;;;14.65;100.00;97352.25;5032808;28;20160;-72
2023/06/10 02:25:50;;;;;;;8.50;5.90;;;15.80;99.90;;;14.81;100.00;97355.56;5034972;28;20160;-72
2023/06/10 02:28:17;;;;;;;8.27;6.13;;;15.80;99.90;;;14.69;100.00;97352.88;5035492;28;20045;-72
2023/06/10 02:30:46;;;;;;;8.68;6.93;;;15.80;99.90;;;14.85;100.00;97356.25;5034521;28;20042;-72
2023/06/10 02:33:14;;;;;;;9.48;6.78;;;15.90;99.90;;;14.96;100.00;97351.16;5034866;28;20057;-72
2023/06/10 02:35:41;;;;;;;7.07;6.25;;;15.90;99.90;;;14.98;100.00;97353.66;5035654;28;20076;-72
2023/06/10 02:38:08;;;;;;;7.53;6.65;;;15.90;99.90;;;14.96;100.00;97355.53;5035001;28;20461;-72
2023/06/10 02:40:35;;;;;;;9.23;6.80;;;16.00;99.90;;;15.05;100.00;97352.31;5036356;28;20057;-73
2023/06/10 02:43:02;;;;;;;7.22;6.05;;;16.00;99.90;;;15.11;100.00;97351.94;5040138;28;20056;-72
2023/06/10 02:45:29;;;;;;;9.20;6.57;;;16.10;99.90;;;14.95;100.00;97359.94;5049523;28;20045;-72
2023/06/10 02:47:56;;;;;;;9.75;6.38;;;16.00;99.90;;;14.97;100.00;97357.22;5033190;28;20052;-72
2023/06/10 02:50:23;;;;;;;8.90;7.10;;;16.00;99.90;;;14.91;100.00;97357.59;5052359;28;20061;-72
2023/06/10 02:52:50;;;;;;;9.98;7.00;;;16.00;99.90;;;14.96;100.00;97353.78;5036662;28;20080;-72
2023/06/10 02:55:21;;;;;;;10.70;7.07;;;16.00;99.90;;;14.91;100.00;97358.44;5038086;28;20196;-72
2023/06/10 02:57:48;;;;;;;7.88;6.57;;;16.00;99.90;;;14.78;100.00;97361.00;5038684;28;20072;-72
2023/06/10 03:00:16;;;;;;;7.85;7.05;;;16.00;99.90;;;14.65;100.00;97362.72;5042293;28;20130;-72
2023/06/10 03:02:45;;;;;;;10.77;7.28;;;15.90;99.90;;;14.56;100.00;97364.13;5054099;28;20640;-72
2023/06/10 03:05:12;;;;;;;11.68;7.05;;;15.70;99.90;;;14.41;100.00;97365.03;5038103;28;20518;-72
2023/06/10 03:07:40;;;;;;;9.93;7.07;;;15.60;99.90;;;14.27;100.00;97373.69;5036624;28;20053;-72
2023/06/10 03:10:08;;;;;;;9.80;8.20;;;15.50;99.90;;;14.30;100.00;97375.28;5055675;28;20429;-72
2023/06/10 03:12:35;;;;;;;10.02;7.32;;;15.50;99.90;;;14.17;100.00;97386.47;5039425;28;20684;-72
2023/06/10 03:15:03;;;;;;;9.15;6.93;;;15.40;99.90;;;14.15;100.00;97390.94;5040624;28;20080;-71
2023/06/10 03:17:31;;;;;;;11.85;7.38;;;15.30;99.90;;;14.12;100.00;97392.91;5038269;28;20148;-72
2023/06/10 03:19:58;;;;;;;13.38;8.57;;;15.20;99.90;;;14.12;100.00;97398.13;5035540;28;20044;-72
2023/06/10 03:22:26;;;;;;;10.48;7.43;;;15.20;99.90;;;14.11;100.00;97405.09;5037234;28;20502;-72
2023/06/10 03:24:54;;;;;;;11.13;7.38;;;15.20;99.90;;;14.13;100.00;97400.63;5045159;28;20456;-74
2023/06/10 03:27:22;;;;;;;13.50;7.80;;;15.20;99.90;;;14.11;100.00;97409.50;5038396;28;20055;-72
2023/06/10 03:29:49;;;;;;;10.23;7.80;;;15.20;99.90;;;14.12;100.00;97411.19;5041292;28;20051;-74
2023/06/10 03:32:16;;;;;;;9.48;7.32;;;15.20;99.90;;;14.06;100.00;97414.16;5038978;28;20045;-72
2023/06/10 03:34:45;;;;;;;10.25;7.68;;;15.10;99.90;;;14.27;100.00;97410.25;5054990;28;20081;-72
2023/06/10 03:37:12;;;;;;;13.50;8.05;;;15.20;99.90;;;14.26;100.00;97412.97;5041745;28;20167;-71
2023/06/10 03:39:39;;;;;;;11.85;7.93;;;15.20;99.90;;;14.54;100.00;97406.91;5036127;28;20136;-72
2023/06/10 03:42:06;;;;;;;8.23;7.22;;;15.20;99.90;;;14.64;100.00;97400.19;5039580;28;20045;-72
2023/06/10 03:44:33;;;;;;;11.23;8.43;;;15.40;99.90;;;14.77;100.00;97395.88;5054130;28;20806;-73
2023/06/10 03:47:00;;;;;;;9.57;7.57;;;15.60;99.90;;;14.93;100.00;97387.94;5035636;28;20072;-73
2023/06/10 03:49:29;;;;;;;12.80;8.05;;;15.70;99.90;;;15.16;100.00;97386.47;5036593;28;21046;-72
2023/06/10 03:51:56;;;;;;;12.05;7.75;;;15.80;99.90;;;15.04;100.00;97382.88;5038752;28;20049;-72
2023/06/10 03:54:23;;;;;;;10.93;7.75;;;15.90;99.90;;;15.50;100.00;97376.44;5035565;28;20264;-72
2023/06/10 03:56:51;;;;;;;9.63;7.88;;;16.10;99.90;;;15.41;100.00;97377.03;5069469;28;20048;-72
2023/06/10 03:59:18;;;;;;;11.98;8.23;;;16.20;99.90;;;15.53;100.00;97372.78;5052419;28;20395;-72
2023/06/10 04:01:45;;;;;;;11.32;7.85;;;16.30;99.90;;;15.55;100.00;97370.91;5036253;28;20115;-72
2023/06/10 04:04:17;;;;;;;9.32;7.65;;;16.40;99.90;;;15.52;100.00;97371.09;5036651;28;20410;-72
2023/06/10 04:06:48;;;;;;;9.85;8.20;;;16.40;99.90;;;15.49;100.00;97366.91;5040726;28;20075;-72
2023/06/10 04:09:16;;;;;;;11.05;7.80;;;16.40;99.90;;;15.59;100.00;97369.75;5039115;28;20739;-72
2023/06/10 04:11:43;;;;;;;10.77;7.28;;;16.40;99.90;;;15.61;100.00;97366.09;5038671;28;21051;-72
2023/06/10 04:14:10;;;;;;;8.65;6.75;;;16.50;99.90;;;15.55;100.00;97368.28;5038793;28;20110;-72
2023/06/10 04:16:38;;;;;;;8.88;7.85;;;16.50;99.90;;;15.57;100.00;97369.84;5042252;28;20080;-72
2023/06/10 04:19:05;;;;;;;10.15;7.35;;;16.50;99.90;;;15.64;100.00;97370.28;5022985;28;20051;-72
2023/06/10 04:21:34;;;;;;;8.25;6.65;;;16.50;99.90;;;15.84;100.00;97371.63;5040333;28;20056;-72
2023/06/10 04:24:01;;;;;;;8.73;6.30;;;16.60;99.90;;;15.91;100.00;97367.63;5036706;28;20053;-72
2023/06/10 04:26:28;;;;;;;10.63;7.68;;;16.70;99.90;;;15.87;100.00;97374.00;5034263;28;20041;-71
2023/06/10 04:28:55;;;;;;;13.45;7.70;;;16.70;99.90;;;15.82;100.00;97371.72;5035754;28;20103;-72
2023/06/10 04:31:22;;;;;;;8.60;7.70;;;16.70;99.90;;;15.93;100.00;97378.84;5035069;28;20126;-72
2023/06/10 04:33:49;;;;;;;7.80;7.00;;;16.80;99.90;;;15.92;100.00;97378.94;5038525;28;20136;-72
2023/06/10 04:36:16;;;;;;;8.23;6.97;;;16.80;99.90;;;15.99;100.00;97382.84;5039942;28;20110;-72
2023/06/10 04:38:44;;;;;;;9.20;7.07;;;16.80;99.90;;;16.08;100.00;97382.22;5035164;28;20126;-72
2023/06/10 04:41:11;;;;;;;7.90;6.85;;;16.90;99.90;;;16.18;100.00;97380.63;5036596;28;20320;-72
2023/06/10 04:43:39;;;;;;;8.55;7.07;;;16.90;99.90;;;16.26;100.00;97377.47;5036877;28;20493;-71
2023/06/10 04:46:05;;;;;;;8.93;7.47;;;17.00;99.90;;;16.35;100.00;97376.00;5036358;28;20048;-72
2023/06/10 04:48:35;;;;;;;8.02;6.78;;;17.10;99.90;;;16.52;100.00;97386.16;5036974;28;20053;-73
2023/06/10 04:51:02;;;;;;;10.70;7.30;;;17.20;99.90;;;16.62;100.00;97384.56;5035025;28;20080;-72
2023/06/10 04:53:30;;;;;;;11.88;6.70;;;17.30;99.90;;;16.56;100.00;97390.25;5050511;28;20434;-72
2023/06/10 04:55:58;;;;;;;9.73;7.20;;;17.40;99.90;;;16.68;100.00;97383.31;5036376;28;20052;-72
2023/06/10 04:58:25;;;;;;;8.80;6.68;;;17.40;99.90;;;16.87;100.00;97380.25;5037405;28;20056;-72
2023/06/10 05:00:52;;;;;;;9.40;6.70;;;17.50;99.90;;;17.00;100.00;97374.97;5033802;28;20045;-72
2023/06/10 05:03:20;;;;;;;8.63;6.13;;;17.60;99.90;;;16.96;100.00;97374.34;5035701;28;20545;-73
2023/06/10 05:05:47;;;;;;;11.45;6.60;;;17.70;99.90;;;16.96;100.00;97376.97;5040517;28;20132;-72
2023/06/10 05:08:14;;;;;;;10.25;7.28;;;17.70;99.90;;;17.16;100.00;97367.66;5034669;28;20557;-72
2023/06/10 05:10:41;;;;;;;9.85;6.40;;;17.80;99.90;;;17.33;100.00;97367.28;5034281;28;20080;-72
2023/06/10 05:13:08;;;;;;;7.07;6.20;;;17.90;99.90;;;17.46;100.00;97369.00;5033980;28;20050;-72
2023/06/10 05:15:36;;;;;;;8.60;6.47;;;18.00;99.90;;;17.66;100.00;97370.97;5034157;28;20432;-72
2023/06/10 05:18:04;;;;;;;10.52;6.07;;;18.20;99.90;;;17.73;100.00;97364.31;5037004;28;20084;-72
2023/06/10 05:20:31;;;;;;;7.97;6.53;;;18.30;99.90;;;17.84;100.00;97367.97;5038272;28;20081;-72
2023/06/10 05:22:58;;;;;;;8.98;6.40;;;18.40;99.90;;;18.01;100.00;97364.06;5036075;28;20048;-71
2023/06/10 05:25:30;;;;;;;8.15;5.95;;;18.50;99.90;;;18.12;100.00;97364.91;5034732;28;20102;-72
2023/06/10 05:27:57;;;;;;;9.67;6.60;;;18.60;99.90;;;18.24;100.00;97367.53;5040854;28;20115;-72
2023/06/10 05:30:25;;;;;;;7.32;6.07;;;18.70;99.90;;;18.46;100.00;97369.34;5035067;28;20126;-72
2023/06/10 05:32:56;;;;;;;7.93;6.50;;;18.90;99.90;;;18.42;100.00;97362.66;5033095;28;20184;-72
2023/06/10 05:35:23;;;;;;;8.02;5.95;;;19.00;99.90;;;18.55;100.00;97366.84;5034844;28;20049;-72
2023/06/10 05:37:57;;;;;;;7.50;5.45;;;19.10;99.90;;;18.65;100.00;97364.31;5032569;28;20148;-71
2023/06/10 05:40:29;;;;;;;9.27;6.38;;;19.20;99.90;;;18.79;100.00;97366.72;5034513;28;20820;-72
2023/06/10 05:42:57;;;;;;;7.15;6.35;;;19.30;99.90;;;18.98;100.00;97354.75;5033564;28;20048;-71
2023/06/10 05:45:27;;;;;;;9.63;5.75;;;19.40;99.90;;;19.05;100.00;97362.97;5038197;28;20049;-72
2023/06/10 05:47:54;;;;;;;9.68;6.25;;;19.50;99.90;;;19.13;100.00;97365.81;5036653;28;20049;-71
2023/06/10 05:50:21;;;;;;;7.40;5.88;;;19.60;99.90;;;19.17;100.00;97368.06;5036030;28;20152;-72
2023/06/10 05:52:48;;;;;;;6.60;5.45;;;19.70;99.90;;;19.39;100.00;97367.16;5034783;28;20124;-71
2023/06/10 05:55:15;;;;;;;9.05;5.95;;;19.80;99.90;;;19.53;100.00;97373.09;5035116;28;20093;-72
2023/06/10 05:57:43;;;;;;;7.72;5.25;;;20.00;99.90;;;19.48;100.00;97368.22;5035505;28;20132;-72
2023/06/10 06:00:10;;;;;;;7.32;5.78;;;20.10;99.90;;;19.81;100.00;97371.66;5033646;28;20399;-72
2023/06/10 06:02:37;;;;;;;8.43;5.80;;;20.20;99.90;;;19.46;100.00;97380.66;5035002;28;20510;-73
2023/06/10 06:05:05;;;;;;;8.45;5.90;;;20.20;99.90;;;19.68;100.00;97371.81;5035681;28;20045;-73
2023/06/10 06:07:33;;;;;;;6.47;5.38;;;20.30;99.90;;;19.84;100.00;97371.41;5031604;28;20041;-73
2023/06/10 06:10:00;;;;;;;6.70;5.50;;;20.30;99.90;;;19.83;100.00;97375.00;5035427;28;20056;-72
2023/06/10 06:12:27;;;;;;;7.07;5.38;;;20.40;99.90;;;19.92;100.00;97368.16;5036081;28;20129;-72
2023/06/10 06:14:54;;;;;;;7.78;6.05;;;20.50;99.90;;;19.99;100.00;97370.13;5035767;28;20147;-73
2023/06/10 06:17:21;;;;;;;8.65;5.68;;;20.60;99.90;;;20.05;100.00;97368.78;5048410;28;20473;-71
2023/06/10 06:19:49;;;;;;;9.60;5.72;;;20.70;99.90;;;19.97;100.00;97373.84;5049309;28;20136;-72
2023/06/10 06:22:20;;;;;;;12.32;5.75;;;20.70;99.90;;;20.14;100.00;97372.41;5031112;28;20053;-72
2023/06/10 06:24:49;;;;;;;7.10;5.22;;;20.80;99.90;;;20.24;100.00;97368.88;5032095;28;20808;-72
2023/06/10 06:27:16;;;;;;;6.93;5.60;;;20.80;99.90;;;20.38;100.00;97362.44;5039473;28;20071;-72
2023/06/10 06:29:44;;;;;;;7.63;5.30;;;20.90;99.90;;;20.44;100.00;97361.91;5034348;28;20084;-72
2023/06/10 06:32:11;;;;;;;6.40;5.10;;;21.00;99.90;;;20.54;100.00;97369.03;5035191;28;20053;-72
2023/06/10 06:34:38;;;;;;;10.85;5.25;;;21.00;99.90;;;20.54;100.00;97375.13;5035553;28;20056;-72
2023/06/10 06:37:06;;;;;;;8.00;5.65;;;21.10;99.90;;;20.45;100.00;97374.09;5036033;28;20044;-72
2023/06/10 06:39:33;;;;;;;9.60;5.57;;;21.20;99.90;;;20.62;100.00;97372.69;5033023;28;20152;-72
2023/06/10 06:42:00;;;;;;;8.35;5.18;;;21.20;99.90;;;20.59;100.00;97378.22;5032486;28;20502;-72
2023/06/10 06:44:27;;;;;;;8.93;5.20;;;21.30;99.90;;;20.71;100.00;97370.22;5033545;28;20067;-72
2023/06/10 06:46:54;;;;;;;8.02;5.03;;;21.40;99.90;;;21.16;100.00;97373.25;5032591;28;20069;-72
2023/06/10 06:49:21;;;;;;;9.63;5.20;;;21.50;99.90;;;21.17;100.00;97374.09;5034253;28;20521;-72
2023/06/10 06:51:48;;;;;;;6.50;4.95;;;21.70;99.90;;;21.08;100.00;97384.50;5034128;28;20102;-72
2023/06/10 06:54:15;;;;;;;6.75;4.88;;;21.70;99.90;;;21.23;100.00;97378.81;5031662;28;20149;-72
2023/06/10 06:56:42;;;;;;;6.53;5.20;;;21.80;99.90;;;21.34;100.00;97380.50;5032727;28;20080;-72
2023/06/10 06:59:09;;;;;;;7.25;4.70;;;21.90;99.90;;;21.03;100.00;97377.97;5034344;28;20050;-72
2023/06/10 07:01:36;;;;;;;11.50;5.55;;;21.90;99.90;;;21.10;100.00;97379.09;5031967;28;20053;-73
2023/06/10 07:04:04;;;;;;;6.47;4.93;;;21.90;99.90;;;21.27;100.00;97381.03;5025176;28;20052;-72
2023/06/10 07:06:31;;;;;;;8.00;5.13;;;22.00;99.90;;;21.37;100.00;97381.06;5034472;28;20073;-73
2023/06/10 07:08:58;;;;;;;6.55;4.75;;;22.10;99.90;;;21.28;100.00;97384.53;5034595;28;20528;-72
2023/06/10 07:11:25;;;;;;;5.82;4.97;;;22.10;99.90;;;21.48;100.00;97380.97;5036266;28;20096;-73
2023/06/10 07:13:52;;;;;;;7.20;4.63;;;22.10;99.90;;;21.54;100.00;97382.22;5031430;28;21272;-73
2023/06/10 07:16:21;;;;;;;5.97;4.45;;;22.20;99.90;;;21.99;100.00;97381.63;5033806;28;20052;-73
2023/06/10 07:18:48;;;;;;;6.00;5.10;;;22.30;99.90;;;21.89;100.00;97381.63;5032673;28;20532;-73
2023/06/10 07:21:16;;;;;;;7.72;4.75;;;22.50;99.90;;;21.91;100.00;97386.78;5033920;28;20049;-73
2023/06/10 07:23:44;;;;;;;6.25;4.40;;;22.60;99.90;;;22.14;100.00;97382.81;5036927;28;20053;-73
2023/06/10 07:26:13;;;;;;;5.53;4.28;;;22.70;99.90;;;22.23;100.00;97381.16;5032631;28;20190;-72
2023/06/10 07:28:41;;;;;;;6.82;4.38;;;22.80;99.90;;;22.33;100.00;97382.00;5031665;28;20052;-75
2023/06/10 07:31:08;;;;;;;7.15;4.50;;;22.90;99.90;;;22.58;100.00;97381.47;5032699;28;20134;-73
2023/06/10 07:33:36;;;;;;;6.65;5.05;;;23.00;99.90;;;22.61;100.00;97376.75;5031990;28;20107;-73
2023/06/10 07:36:04;;;;;;;6.43;4.30;;;23.20;99.90;;;22.70;100.00;97378.50;5035275;28;20115;-73
2023/06/10 07:38:31;;;;;;;7.45;4.50;;;23.20;99.90;;;22.70;100.00;97377.69;5035293;28;20131;-72
2023/06/10 07:40:58;;;;;;;7.68;5.13;;;23.30;99.90;;;22.77;100.00;97376.13;5064709;28;20083;-73
2023/06/10 07:43:25;;;;;;;6.95;4.78;;;23.30;99.90;;;23.03;100.00;97381.56;5037841;28;20045;-72
2023/06/10 07:45:52;;;;;;;5.85;4.22;;;23.50;99.90;;;23.06;100.00;97372.50;5045119;28;20085;-70
2023/06/10 07:48:20;;;;;;;5.50;4.30;;;23.60;99.90;;;23.31;100.00;97378.88;5041702;28;20743;-71
2023/06/10 07:50:46;;;;;;;7.07;4.03;;;23.70;99.90;;;23.32;100.00;97375.25;5038360;28;20076;-70
2023/06/10 07:53:14;;;;;;;5.63;4.40;;;23.90;99.90;;;23.67;100.00;97373.59;5033382;28;20597;-70
2023/06/10 07:55:41;;;;;;;8.05;4.20;;;23.90;99.90;;;23.34;100.00;97374.13;5029066;28;20186;-73
2023/06/10 07:58:08;;;;;;;5.97;4.38;;;24.10;99.90;;;23.75;100.00;97369.22;4997031;28;20112;-71
2023/06/10 08:00:35;;;;;;;6.57;4.38;;;24.20;99.90;;;23.69;100.00;97375.09;4996172;28;20123;-70
2023/06/10 08:03:02;;;;;;;5.00;4.18;;;24.30;99.90;;;23.83;100.00;97368.44;5001113;28;20046;-73
2023/06/10 08:05:30;;;;;;;6.15;3.90;;;24.30;99.90;;;23.86;100.00;97372.63;4996709;28;20050;-73
2023/06/10 08:07:57;;;;;;;7.03;4.00;;;24.50;99.90;;;24.14;100.00;97376.81;4997720;28;20077;-73
2023/06/10 08:10:27;;;;;;;7.25;4.20;;;24.60;99.90;;;24.34;100.00;97380.09;5009540;28;20057;-71
2023/06/10 08:12:55;;;;;;;8.98;3.50;;;24.70;99.90;;;24.24;100.00;97374.03;4982887;28;20564;-74
2023/06/10 08:15:22;;;;;;;6.63;3.42;;;24.80;99.90;;;24.28;100.00;97372.75;4994451;28;20061;-72
2023/06/10 08:17:49;;;;;;;3.75;3.20;;;24.90;99.90;;;24.32;100.00;97374.09;4995058;28;20431;-71
2023/06/10 08:20:18;;;;;;;4.93;3.42;;;25.00;99.80;;;24.45;100.00;97370.19;4997838;28;20197;-72
2023/06/10 08:22:45;;;;;;;4.15;3.47;;;25.10;99.50;;;24.69;100.00;97366.84;4999558;28;20045;-72
2023/06/10 08:25:12;;;;;;;5.18;3.28;;;25.20;99.70;;;25.23;100.00;97362.91;4997154;28;20081;-72
2023/06/10 08:27:39;;;;;;;6.15;3.17;;;25.30;99.90;;;24.87;100.00;97370.25;4995399;28;20712;-71
2023/06/10 08:30:08;;;;;;;5.13;3.05;;;25.50;99.00;;;24.79;100.00;97362.22;4994128;28;20061;-72
2023/06/10 08:32:35;;;;;;;3.17;2.60;;;25.60;98.10;;;24.82;100.00;97369.91;4997753;28;20478;-71
2023/06/10 08:35:03;;;;;;;4.07;3.00;;;25.60;98.00;;;25.63;100.00;97366.59;4997808;28;20053;-71
2023/06/10 08:37:30;;;;;;;3.83;2.58;;;25.70;99.20;;;25.57;100.00;97366.47;4996570;28;20489;-72
2023/06/10 08:39:57;;;;;;;4.13;2.92;;;25.80;97.30;;;25.71;100.00;97365.78;4995777;28;20061;-71
2023/06/10 08:43:07;;;;;;;3.80;2.75;;;25.90;96.90;;;26.13;100.00;97367.44;4993720;28;20062;-72
2023/06/10 08:45:38;;;;;;;3.47;2.63;;;26.10;96.50;;;27.07;100.00;97370.31;4956306;28;20108;-71
2023/06/10 08:48:09;;;;;;;4.18;2.80;;;26.30;96.70;;;26.52;100.00;97365.88;4999635;28;20136;-72
2023/06/10 08:50:38;;;;;;;3.60;2.40;;;26.50;95.40;;;26.58;100.00;97359.91;4993419;28;20058;-72
2023/06/10 08:53:07;;;;;;;3.25;2.22;;;26.40;94.90;;;26.65;100.00;97367.00;4995815;28;20053;-72
2023/06/10 08:55:38;;;;;;;3.65;2.80;;;26.70;94.50;;;26.48;100.00;97368.06;5004566;28;20053;-71
2023/06/10 08:58:06;;;;;;;3.22;2.50;;;27.00;93.80;;;27.11;100.00;97355.66;5001528;28;20057;-72
2023/06/10 09:00:35;;;;;;;2.97;2.38;;;27.30;93.60;;;26.85;100.00;97362.13;4998455;28;20114;-72
2023/06/10 09:03:08;;;;;;;4.13;2.70;;;27.60;93.00;;;27.46;100.00;97356.13;4996388;28;20045;-72
2023/06/10 09:05:37;;;;;;;4.97;2.50;;;27.80;92.70;;;27.27;100.00;97358.25;4994942;28;20426;-72
2023/06/10 09:08:07;;;;;;;3.63;2.38;;;28.40;91.50;;;28.02;100.00;97358.53;4995590;28;20082;-72
2023/06/10 09:10:34;;;;;;;4.55;2.22;;;28.70;91.40;;;28.40;100.00;97354.00;4998761;28;20050;-73
2023/06/10 09:13:02;;;;;;;4.32;2.17;;;29.00;91.10;;;28.39;100.00;97359.50;4996709;28;20420;-72
2023/06/10 09:15:29;;;;;;;3.90;2.63;;;29.20;90.60;;;28.34;100.00;97350.19;4998748;28;20175;-73
2023/06/10 09:17:57;;;;;;;3.50;2.22;;;29.70;89.90;;;28.23;100.00;97355.16;5000215;28;20093;-72
2023/06/10 09:20:24;;;;;;;4.30;2.60;;;29.90;87.60;;;29.02;100.00;97349.28;4996091;28;20049;-72
2023/06/10 09:22:51;;;;;;;3.03;1.90;;;30.10;88.40;;;27.99;99.77;97345.59;4990978;28;20050;-74
2023/06/10 09:25:18;;;;;;;6.38;2.10;;;30.40;85.10;;;27.68;99.40;97341.13;4993353;28;20057;-73
2023/06/10 09:27:50;;;;;;;3.80;2.40;;;30.30;84.20;;;27.94;100.00;97338.94;5008808;28;20065;-74
2023/06/10 09:30:29;;;;;;;3.10;1.85;;;29.80;85.10;;;27.84;100.00;97342.88;4998226;28;20050;-72
2023/06/10 09:32:59;;;;;;;4.78;2.55;;;29.80;84.40;;;28.29;98.52;97338.44;4995744;28;20054;-73
2023/06/10 09:35:29;;;;;;;4.93;1.60;;;29.90;84.00;;;28.32;94.60;97344.22;5009224;28;20422;-73
2023/06/10 09:37:58;;;;;;;2.95;2.03;;;30.20;83.00;;;29.17;92.72;97326.03;4993840;28;20142;-72
2023/06/10 09:40:26;;;;;;;3.78;2.03;;;30.70;83.30;;;30.25;92.03;97334.81;4992390;28;20054;-72
2023/06/10 09:42:55;;;;;;;3.67;2.42;;;31.30;82.80;;;28.84;92.19;97338.97;4994904;28;20131;-73
2023/06/10 09:45:23;;;;;;;5.40;2.08;;;31.50;80.40;;;28.14;92.80;97339.25;4993148;28;20151;-72
2023/06/10 09:47:55;;;;;;;3.08;1.90;;;30.80;80.00;;;27.83;95.13;97334.00;4995551;28;20643;-72
2023/06/10 09:50:23;;;;;;;3.08;1.90;;;29.80;80.80;;;27.28;97.33;97332.44;5008916;28;20158;-73
2023/06/10 09:52:51;;;;;;;6.25;2.00;;;29.30;81.30;;;27.17;99.58;97335.50;4997226;28;20046;-74
2023/06/10 09:55:18;;;;;;;3.78;2.42;;;29.00;82.00;;;27.31;100.00;97337.41;4993579;28;20050;-72
2023/06/10 09:57:49;;;;;;;3.55;2.05;;;28.40;83.70;;;26.93;100.00;97347.91;4980583;28;20112;-73
2023/06/10 10:00:17;;;;;;;5.80;2.47;;;28.10;83.20;;;27.46;99.39;97332.13;4995712;28;20069;-73
2023/06/10 10:02:51;;;;;;;6.05;2.20;;;28.20;83.40;;;28.49;94.17;97330.75;4989677;28;20411;-73
2023/06/10 10:05:22;;;;;;;3.22;1.92;;;28.90;82.30;;;28.91;92.16;97327.34;4993570;28;20105;-73
2023/06/10 10:07:52;;;;;;;7.65;2.42;;;29.70;81.90;;;28.71;89.30;97332.44;4993713;28;20104;-72
2023/06/10 10:10:21;;;;;;;4.22;1.95;;;29.90;80.00;;;29.22;86.41;97337.00;4994538;28;20045;-72
2023/06/10 10:12:56;;;;;;;3.35;2.22;;;30.40;79.50;;;29.88;85.72;97326.13;4991344;28;20132;-73
2023/06/10 10:15:30;;;;;;;4.72;2.50;;;30.60;79.10;;;29.25;87.07;97330.44;4994461;28;20061;-72
2023/06/10 10:18:09;;;;;;;6.03;2.20;;;30.60;78.80;;;29.23;86.40;97329.78;4999733;28;20097;-74